Rio Bananal, Brazil
Current Conditions -  °F | °C
As of 10:00 AM on Monday 22 Dec 2014 (Local Time) from SBVT Reporting Station
Few Clouds Few Clouds  
Wind Chill: 27°   Ceiling: Unl
Heat Index: 29°   Visibility: 6mi
Dew Point: 21°   Wind: 16mph
Humidity: 70%   Direction: 20°NNE
Pressure: 29.94"   Gusts: NA
Location:  19.26°S, 40.34°W
Report Text: SBVT 221200Z 02014KT 9999 FEW025 27/21 Q1014
Loading
Personal Weather Stations






























Interactive Weather Map New forecast layout! Learn more

10-Day Weather Forecast

Advertisements
Track Severe Weather on mobile